Погода Крытнона неделю

Западнопоморское воеводство, Польша

20 - 26 июля
  • 20июля
    Сегодня
    +14°
    +24°
    Практически безоблачно
    ВремяПогодаТемператураВлажностьДавлениеВетер, м/сВероятность осадков
    02:00Небольшая облачность+13°C98 %762 мм1.5 м/с2 %
    05:00Ясно и безоблачно+12°C97 %761 мм1.7 м/с2 %
    08:00Ясно и безоблачно+18°C84 %761 мм1.5 м/с2 %
    11:00Облачно с прояснениями+22°C68 %760 мм1.9 м/с2 %
    14:00Практически безоблачно+24°C62 %759 мм2.4 м/с2 %
    17:00Ясно и безоблачно+23°C60 %759 мм2.3 м/с2 %
    20:00Ясно и безоблачно+20°C78 %758 мм1.6 м/с2 %
    23:00Ясно и безоблачно+16°C95 %758 мм1.7 м/с2 %
  • 21июля
    Воскресенье
    +16°
    +28°
    Ясно и безоблачно
    ВремяПогодаТемператураВлажностьДавлениеВетер, м/сВероятность осадков
    02:00Ясно и безоблачно+15°C96 %758 мм1.6 м/с2 %
    05:00Ясно и безоблачно+14°C98 %757 мм1.7 м/с2 %
    08:00Ясно и безоблачно+19°C86 %757 мм2.0 м/с2 %
    11:00Ясно и безоблачно+25°C64 %757 мм2.3 м/с2 %
    14:00Ясно и безоблачно+26°C53 %756 мм1.7 м/с2 %
    17:00Ясно и безоблачно+26°C52 %756 мм1.9 м/с2 %
    20:00Ясно и безоблачно+23°C72 %756 мм3.6 м/с2 %
    23:00Ясно и безоблачно+19°C77 %756 мм3.8 м/с2 %
  • 22июля
    Понедельник
    +15°
    +26°
    Облачно с прояснениями
    ВремяПогодаТемператураВлажностьДавлениеВетер, м/сВероятность осадков
    02:00Облачно с прояснениями+17°C80 %757 мм3.2 м/с2 %
    05:00Небольшая облачность+16°C87 %756 мм3.1 м/с2 %
    08:00Облачно с прояснениями+20°C80 %756 мм2.7 м/с2 %
    11:00Облачно с прояснениями+25°C64 %757 мм2.6 м/с5 %
    14:00Облачно с прояснениями+26°C67 %757 мм2.2 м/с38 %
    17:00Небольшая облачность, ливень+21°C85 %758 мм3.9 м/с50 %
    20:00Облачно с прояснениями+20°C90 %759 мм3.5 м/с49 %
    23:00Облачно с прояснениями+19°C91 %759 мм3.4 м/с35 %
  • 23июля
    Вторник
    +13°
    +21°
    Ясно и безоблачно
    ВремяПогодаТемператураВлажностьДавлениеВетер, м/сВероятность осадков
    02:00Практически безоблачно+18°C94 %760 мм3.1 м/с38 %
    05:00Ясно и безоблачно+17°C95 %760 мм2.5 м/с43 %
    08:00Практически безоблачно+19°C81 %760 мм3.4 м/с35 %
    11:00Ясно и безоблачно+21°C67 %760 мм3.9 м/с41 %
    14:00Ясно и безоблачно+21°C55 %760 мм3.9 м/с32 %
    17:00Ясно и безоблачно+20°C57 %760 мм3.1 м/с19 %
    20:00Ясно и безоблачно+19°C78 %760 мм0.6 м/с8 %
    23:00Ясно и безоблачно+15°C88 %760 мм1.4 м/с12 %
Мы используем cookies
Соглашаюсь